Time;durP1;ratioP1;P1;durP2;ratioP2;P2;SDS_P1;SDS_P2;PMS_P1;PMS_P2;Temp;Humidity;BMP_temperature;BMP_pressure;BME280_temperature;BME280_humidity;BME280_pressure;Samples;Min_cycle;Max_cycle;Signal;HPM_P1;HPM_P2
2023/12/18 00:01:46;;;;;;;33.97;14.90;;;0.70;99.90;;;-1.59;100.00;101966.31;10450937;27;96670;-83
2023/12/18 00:06:49;;;;;;;28.97;13.30;;;0.60;99.90;;;-1.63;100.00;101964.69;10479512;27;96553;-82
2023/12/18 00:11:53;;;;;;;32.93;16.03;;;0.60;99.90;;;-1.70;100.00;101955.34;10471981;27;96513;-83
2023/12/18 00:16:56;;;;;;;36.43;14.97;;;0.60;99.90;;;-1.69;100.00;101954.44;10476855;27;96613;-83
2023/12/18 00:22:00;;;;;;;35.87;16.00;;;0.60;99.90;;;-1.67;100.00;101966.53;10428630;27;96749;-83
2023/12/18 00:27:04;;;;;;;32.63;14.97;;;0.50;99.90;;;-1.69;100.00;101957.03;10490231;27;97707;-83
2023/12/18 00:32:08;;;;;;;30.20;15.13;;;0.50;99.90;;;-1.75;100.00;101957.22;10490533;27;96526;-83
2023/12/18 00:37:11;;;;;;;37.67;14.30;;;0.50;99.90;;;-1.80;100.00;101953.91;10464012;27;96527;-83
2023/12/18 00:42:14;;;;;;;38.47;14.23;;;0.40;99.90;;;-1.90;100.00;101945.53;10467379;27;97754;-83
2023/12/18 00:47:19;;;;;;;39.80;17.20;;;0.40;99.90;;;-1.91;100.00;101952.50;10485353;27;97878;-83
2023/12/18 00:52:22;;;;;;;31.50;14.07;;;0.30;99.90;;;-1.95;100.00;101971.72;10450042;27;96630;-83
2023/12/18 00:57:26;;;;;;;38.97;16.00;;;0.30;99.90;;;-1.99;100.00;101975.28;10466480;27;96691;-83
2023/12/18 01:02:30;;;;;;;32.87;13.40;;;0.20;99.90;;;-2.04;100.00;101977.19;10464439;27;98245;-83
2023/12/18 01:07:33;;;;;;;31.20;13.37;;;0.20;99.90;;;-2.08;100.00;101970.38;10507579;27;96407;-83
2023/12/18 01:12:37;;;;;;;33.73;15.10;;;0.20;99.90;;;-2.11;100.00;101964.38;10467997;27;96572;-83
2023/12/18 01:17:40;;;;;;;36.40;16.87;;;0.10;99.90;;;-2.16;100.00;101965.38;10484591;27;96541;-83
2023/12/18 01:22:43;;;;;;;30.00;12.27;;;0.10;99.90;;;-2.15;100.00;101971.44;10487876;27;97037;-83
2023/12/18 01:27:54;;;;;;;28.13;12.47;;;0.10;99.90;;;-2.24;100.00;101956.06;10453913;27;96420;-83
2023/12/18 01:32:58;;;;;;;33.50;12.10;;;0.00;99.90;;;-2.28;100.00;101952.72;10470043;27;96573;-83
2023/12/18 01:38:01;;;;;;;26.70;12.00;;;0.00;99.90;;;-2.25;100.00;101965.63;10488395;27;96414;-83
2023/12/18 01:43:26;;;;;;;33.23;14.03;;;0.00;99.90;;;-2.29;100.00;101952.72;10503332;27;96501;-83
2023/12/18 01:48:31;;;;;;;33.07;15.07;;;0.00;99.90;;;-2.28;100.00;101959.63;10465806;27;96615;-83
2023/12/18 01:53:44;;;;;;;30.63;14.27;;;0.00;99.90;;;-2.08;100.00;101948.69;10446962;27;98083;-83
2023/12/18 01:58:47;;;;;;;31.03;14.20;;;0.00;99.90;;;-1.96;100.00;101948.31;10474478;27;96660;-82
2023/12/18 02:03:52;;;;;;;32.67;14.80;;;0.10;99.90;;;-1.90;100.00;101943.78;10484056;27;96838;-83
2023/12/18 02:08:59;;;;;;;37.00;15.00;;;0.10;99.90;;;-1.92;100.00;101927.34;10463422;27;96659;-83
2023/12/18 02:14:05;;;;;;;40.47;16.03;;;0.10;99.90;;;-1.85;100.00;101929.75;10473157;27;96594;-83
2023/12/18 02:19:33;;;;;;;35.47;14.77;;;0.20;99.90;;;-1.82;100.00;101929.66;10475638;27;96573;-83
2023/12/18 02:24:37;;;;;;;33.77;13.90;;;0.20;99.90;;;-1.84;100.00;101921.88;10482711;27;96621;-83
2023/12/18 02:29:40;;;;;;;36.03;15.27;;;0.20;99.90;;;-1.83;100.00;101920.13;10441481;27;96873;-83
2023/12/18 02:34:44;;;;;;;40.20;14.17;;;0.20;99.90;;;-1.84;100.00;101921.03;10458437;27;96858;-83
2023/12/18 02:39:48;;;;;;;30.20;12.70;;;0.20;99.90;;;-1.90;100.00;101909.91;10462482;27;96587;-83
2023/12/18 02:44:51;;;;;;;29.70;14.03;;;0.20;99.90;;;-1.90;100.00;101922.06;10450351;27;96463;-83
2023/12/18 02:49:55;;;;;;;28.57;11.47;;;0.20;99.90;;;-1.85;100.00;101929.75;10458644;27;97858;-83
2023/12/18 02:55:00;;;;;;;32.10;12.70;;;0.10;99.90;;;-1.94;100.00;101912.63;10448262;27;96675;-83
2023/12/18 03:00:04;;;;;;;32.13;13.50;;;0.20;99.90;;;-1.90;100.00;101928.13;10489364;27;96568;-83
2023/12/18 03:05:08;;;;;;;29.33;12.23;;;0.10;99.90;;;-1.91;100.00;101931.66;10441207;27;96509;-83
2023/12/18 03:10:12;;;;;;;33.23;12.93;;;0.20;99.90;;;-1.86;100.00;101933.25;10478012;27;96634;-83
2023/12/18 03:15:15;;;;;;;31.43;13.97;;;0.20;99.90;;;-1.92;100.00;101942.97;10445867;27;96601;-83
2023/12/18 03:20:19;;;;;;;31.00;13.43;;;0.10;99.90;;;-1.92;100.00;101939.50;10453838;27;97319;-83
2023/12/18 03:25:24;;;;;;;28.23;12.20;;;0.10;99.90;;;-1.93;100.00;101935.19;10461050;27;97504;-83
2023/12/18 03:30:28;;;;;;;32.77;14.40;;;0.10;99.90;;;-1.96;100.00;101919.66;10459109;27;96550;-83
2023/12/18 03:35:32;;;;;;;32.77;13.83;;;0.00;99.90;;;-2.00;100.00;101918.88;10449544;27;96608;-83
2023/12/18 03:40:36;;;;;;;35.57;13.93;;;0.00;99.90;;;-2.06;100.00;101916.47;10453108;27;96625;-83
2023/12/18 03:45:39;;;;;;;27.67;12.63;;;0.00;99.90;;;-2.09;100.00;101908.75;10480789;27;96549;-83
2023/12/18 03:50:43;;;;;;;33.10;14.07;;;0.00;99.90;;;-2.10;100.00;101912.22;10482222;27;96658;-83
2023/12/18 03:55:48;;;;;;;31.03;12.67;;;-0.10;99.90;;;-2.10;100.00;101912.22;10493856;27;96597;-83
2023/12/18 04:00:51;;;;;;;33.13;14.17;;;-0.10;99.90;;;-2.12;100.00;101906.22;10452812;27;96829;-83
2023/12/18 04:05:55;;;;;;;32.80;14.07;;;-0.10;99.90;;;-2.22;100.00;101879.63;10487953;27;96575;-82
2023/12/18 04:10:58;;;;;;;32.73;13.97;;;-0.10;99.90;;;-2.18;100.00;101885.56;10488608;27;96581;-84
2023/12/18 04:16:02;;;;;;;32.43;15.03;;;-0.10;99.90;;;-2.16;100.00;101875.94;10482322;27;96677;-83
2023/12/18 04:21:05;;;;;;;38.10;15.37;;;-0.10;99.90;;;-2.14;100.00;101896.75;10467456;27;96496;-83
2023/12/18 04:26:09;;;;;;;28.43;12.67;;;-0.10;99.90;;;-2.18;100.00;101889.03;10479034;27;98105;-84
2023/12/18 04:31:19;;;;;;;30.20;13.10;;;-0.20;99.90;;;-2.17;100.00;101877.69;10473416;27;97904;-83
2023/12/18 04:36:23;;;;;;;31.63;13.67;;;-0.20;99.90;;;-2.17;100.00;101889.88;10490888;27;96524;-83
2023/12/18 04:41:26;;;;;;;36.63;16.53;;;-0.20;99.90;;;-2.20;100.00;101901.25;10457987;27;96552;-84
2023/12/18 04:46:36;;;;;;;52.43;22.57;;;-0.20;99.90;;;-2.27;100.00;101883.25;10476760;27;96563;-83
2023/12/18 04:51:40;;;;;;;42.93;18.50;;;-0.20;99.90;;;-2.25;100.00;101894.47;10469404;27;96933;-83
2023/12/18 04:56:43;;;;;;;31.10;14.87;;;-0.20;99.90;;;-2.27;100.00;101897.13;10475949;27;96653;-83
2023/12/18 05:01:47;;;;;;;29.73;14.27;;;-0.30;99.90;;;-2.25;100.00;101894.47;10486327;27;96601;-83
2023/12/18 05:06:52;;;;;;;37.10;14.80;;;-0.30;99.90;;;-2.28;100.00;101887.59;10471746;27;96567;-82
2023/12/18 05:11:55;;;;;;;25.43;11.37;;;-0.30;99.90;;;-2.25;100.00;101884.03;10462805;27;96638;-83
2023/12/18 05:16:59;;;;;;;33.70;15.80;;;-0.20;99.90;;;-2.35;100.00;101867.81;10469781;27;97279;-84
2023/12/18 05:22:02;;;;;;;32.53;13.60;;;-0.20;99.90;;;-2.31;100.00;101889.44;10457021;27;97877;-83
2023/12/18 05:27:06;;;;;;;31.17;12.23;;;-0.30;99.90;;;-2.32;100.00;101885.13;10482713;27;96691;-83
2023/12/18 05:32:09;;;;;;;27.00;10.23;;;-0.30;99.90;;;-2.32;100.00;101883.38;10469812;27;97934;-83
2023/12/18 05:37:13;;;;;;;30.17;11.97;;;-0.30;99.90;;;-2.36;100.00;101883.50;10442731;27;96508;-83
2023/12/18 05:42:18;;;;;;;26.63;11.53;;;-0.30;99.90;;;-2.35;100.00;101877.38;10470611;27;96688;-83
2023/12/18 05:47:22;;;;;;;30.53;13.93;;;-0.30;99.90;;;-2.34;100.00;101879.97;10484567;27;96639;-83
2023/12/18 05:52:27;;;;;;;29.63;13.27;;;-0.40;99.90;;;-2.37;100.00;101874.00;10485838;27;96702;-84
2023/12/18 05:57:30;;;;;;;24.33;10.63;;;-0.40;99.90;;;-2.32;100.00;101875.56;10477599;27;98613;-83
2023/12/18 06:02:34;;;;;;;28.97;12.27;;;-0.30;99.90;;;-2.34;100.00;101881.69;10440483;27;97529;-82
2023/12/18 06:07:37;;;;;;;31.63;13.77;;;-0.30;99.90;;;-2.38;100.00;101899.16;10446734;27;96566;-82
2023/12/18 06:12:43;;;;;;;28.43;11.93;;;-0.30;99.90;;;-2.37;100.00;101902.63;10469810;27;96660;-83
2023/12/18 06:17:47;;;;;;;26.67;11.33;;;-0.40;99.90;;;-2.41;100.00;101909.66;10440038;27;98287;-82
2023/12/18 06:22:51;;;;;;;53.37;19.60;;;-0.40;99.90;;;-2.43;100.00;101912.31;10458093;27;97059;-82
2023/12/18 06:27:54;;;;;;;59.43;19.87;;;-0.40;99.90;;;-2.37;100.00;101931.28;10439555;27;96932;-82
2023/12/18 06:32:58;;;;;;;57.03;19.57;;;-0.40;99.90;;;-2.40;100.00;101926.97;10441597;27;96642;-82
2023/12/18 06:38:02;;;;;;;49.87;19.37;;;-0.30;99.90;;;-2.43;100.00;101937.50;10445269;27;98365;-83
2023/12/18 06:43:05;;;;;;;53.13;20.17;;;-0.40;99.90;;;-2.47;100.00;101935.88;10436395;27;97192;-84
2023/12/18 06:48:09;;;;;;;43.57;18.17;;;-0.40;99.90;;;-2.46;100.00;101938.44;10434059;27;97795;-84
2023/12/18 06:53:12;;;;;;;46.07;18.87;;;-0.40;99.90;;;-2.51;100.00;101929.91;10459554;27;96617;-84
2023/12/18 06:58:16;;;;;;;52.43;19.93;;;-0.50;99.90;;;-2.43;100.00;101937.50;10452579;27;96848;-84
2023/12/18 07:03:19;;;;;;;46.80;21.20;;;-0.40;99.90;;;-2.26;100.00;101944.84;10421700;27;98205;-84
2023/12/18 07:08:23;;;;;;;57.47;21.87;;;-0.40;99.90;;;-2.16;100.00;101935.84;10447449;27;96652;-84
2023/12/18 07:13:27;;;;;;;70.70;25.33;;;-0.30;99.90;;;-2.07;100.00;101932.13;10442054;27;96779;-84
2023/12/18 07:18:30;;;;;;;62.47;20.90;;;-0.10;99.90;;;-2.01;100.00;101925.00;10462479;27;96739;-84
2023/12/18 07:23:33;;;;;;;109.40;33.27;;;0.00;99.90;;;-1.88;100.00;101931.53;10487485;27;96562;-84
2023/12/18 07:28:37;;;;;;;72.47;28.30;;;0.10;99.90;;;-1.84;100.00;101913.22;10457136;27;96558;-85
2023/12/18 07:33:40;;;;;;;62.33;25.13;;;0.20;99.90;;;-1.61;100.00;101934.22;10458364;27;98321;-84
2023/12/18 07:38:45;;;;;;;65.63;27.83;;;0.30;99.90;;;-1.40;100.00;101923.09;10452117;27;96976;-85
2023/12/18 07:43:50;;;;;;;66.73;26.47;;;0.50;99.90;;;-1.21;100.00;101928.56;10449445;27;96676;-85
2023/12/18 07:48:54;;;;;;;42.63;20.00;;;0.60;99.90;;;-1.00;100.00;101934.84;10447742;27;97303;-85
2023/12/18 07:53:58;;;;;;;59.90;25.00;;;0.80;99.90;;;-0.82;100.00;101920.31;10470037;27;96687;-85
2023/12/18 07:59:02;;;;;;;56.70;26.83;;;1.10;99.90;;;-0.51;100.00;101924.47;10458312;27;96953;-85
2023/12/18 08:04:06;;;;;;;63.80;26.60;;;1.30;99.90;;;-0.19;100.00;101920.66;10458099;27;96692;-84
2023/12/18 08:09:10;;;;;;;61.20;29.43;;;1.60;99.90;;;0.19;100.00;101912.22;10449551;27;97496;-85
2023/12/18 08:14:14;;;;;;;60.20;31.27;;;2.00;99.90;;;0.59;100.00;101913.25;10446130;27;96640;-84
2023/12/18 08:19:17;;;;;;;47.03;26.10;;;2.40;99.90;;;1.03;100.00;101903.56;10464952;27;97275;-85
2023/12/18 08:24:22;;;;;;;36.53;18.23;;;2.70;99.90;;;1.32;100.00;101915.44;10435882;27;96990;-85
2023/12/18 08:29:25;;;;;;;29.97;16.40;;;3.10;99.90;;;1.65;100.00;101920.09;10439952;27;96507;-84
2023/12/18 08:34:29;;;;;;;32.20;15.53;;;3.50;99.90;;;1.82;100.00;101927.19;10432658;27;97438;-84
2023/12/18 08:39:32;;;;;;;28.50;15.17;;;3.70;99.90;;;1.77;100.00;101937.88;10447430;27;98239;-84
2023/12/18 08:44:36;;;;;;;28.17;14.53;;;3.80;99.90;;;1.44;100.00;101950.72;10429428;27;98766;-84
2023/12/18 08:49:39;;;;;;;29.87;14.77;;;3.60;99.90;;;1.10;100.00;101927.72;10425067;27;98642;-84
2023/12/18 08:54:43;;;;;;;36.73;15.57;;;3.40;99.90;;;0.91;100.00;101927.66;10433993;27;97299;-81
2023/12/18 08:59:50;;;;;;;32.77;16.57;;;3.20;99.90;;;0.78;100.00;101914.22;10435502;27;97172;-83
2023/12/18 09:04:53;;;;;;;33.17;15.53;;;3.10;99.90;;;0.68;100.00;101909.44;10429969;27;98800;-82
2023/12/18 09:09:57;;;;;;;41.70;18.30;;;2.90;99.90;;;0.58;100.00;101908.09;10425226;27;100207;-82
2023/12/18 09:15:00;;;;;;;39.17;17.50;;;2.90;99.90;;;0.57;100.00;101902.00;10430016;27;98283;-84
2023/12/18 09:20:04;;;;;;;41.33;18.10;;;2.80;99.90;;;0.53;100.00;101901.28;10422319;27;97536;-84
2023/12/18 09:25:08;;;;;;;42.10;19.03;;;2.80;99.90;;;0.55;100.00;101909.06;10438084;27;96655;-83
2023/12/18 09:30:12;;;;;;;44.13;19.57;;;2.80;99.90;;;0.62;100.00;101883.50;10454029;27;98080;-82
2023/12/18 09:35:16;;;;;;;43.60;20.30;;;2.80;99.90;;;0.66;100.00;101883.34;10444409;27;96566;-94
2023/12/18 09:40:19;;;;;;;41.80;20.13;;;2.90;99.90;;;0.70;100.00;101868.34;10429253;27;97333;-91
2023/12/18 09:45:25;;;;;;;55.30;24.63;;;3.00;99.90;;;0.80;100.00;101870.50;10441727;27;96642;-91
2023/12/18 09:50:29;;;;;;;58.80;25.60;;;3.10;99.90;;;0.90;100.00;101864.88;10430694;27;97815;-90
2023/12/18 09:55:32;;;;;;;43.23;20.50;;;3.20;99.90;;;0.99;100.00;101867.13;10432881;27;98116;-93
2023/12/18 10:00:36;;;;;;;54.80;23.77;;;3.30;99.90;;;1.05;100.00;101857.22;10443571;27;98213;-93
2023/12/18 10:05:40;;;;;;;45.20;22.97;;;3.30;99.90;;;1.12;100.00;101860.44;10443070;27;96496;-93
2023/12/18 10:10:44;;;;;;;49.43;25.07;;;3.40;99.90;;;1.14;100.00;101842.91;10430835;27;97274;-92
2023/12/18 10:15:47;;;;;;;40.23;22.03;;;3.40;99.90;;;1.15;100.00;101844.59;10474958;27;96551;-92
2023/12/18 10:20:51;;;;;;;48.50;21.93;;;3.30;99.90;;;1.06;100.00;101843.22;10444982;27;96831;-93
2023/12/18 10:25:55;;;;;;;51.67;21.57;;;3.20;99.90;;;0.98;100.00;101834.84;10421561;27;96677;-93
2023/12/18 10:30:58;;;;;;;53.77;23.07;;;3.20;99.90;;;0.86;100.00;101818.84;10441211;27;96536;-92
2023/12/18 10:36:06;;;;;;;45.80;21.87;;;3.10;99.90;;;0.82;100.00;101806.78;10458513;27;96594;-96
2023/12/18 10:41:11;;;;;;;49.63;23.67;;;3.10;99.90;;;0.90;100.00;101813.41;10457186;27;96944;-93
2023/12/18 10:46:15;;;;;;;48.33;22.23;;;3.10;99.90;;;0.96;100.00;101814.88;10459777;27;96667;-94
2023/12/18 10:51:22;;;;;;;47.67;21.50;;;3.10;99.90;;;1.22;100.00;101809.38;10423992;27;96601;-92
2023/12/18 10:56:28;;;;;;;38.10;20.03;;;3.50;99.90;;;1.41;100.00;101800.66;10421342;27;96808;-92
2023/12/18 11:01:34;;;;;;;41.73;20.77;;;3.70;99.90;;;1.41;100.00;101798.06;10437301;27;96743;-92
2023/12/18 11:06:38;;;;;;;45.50;21.20;;;3.70;99.90;;;1.40;100.00;101791.97;10428301;27;96886;-92
2023/12/18 11:11:42;;;;;;;56.73;24.83;;;3.60;99.90;;;1.42;100.00;101779.63;10413018;27;96520;-92
2023/12/18 11:17:28;;;;;;;41.77;20.47;;;3.60;99.90;;;1.41;100.00;101770.09;10416246;27;98353;-92
2023/12/18 11:22:45;;;;;;;44.40;19.97;;;3.60;99.90;;;1.34;100.00;101763.44;10465863;27;96441;-92
2023/12/18 11:27:52;;;;;;;45.90;21.77;;;3.50;99.90;;;1.32;100.00;101760.06;10431522;27;96663;-92
2023/12/18 11:33:07;;;;;;;40.87;19.77;;;3.50;99.90;;;1.32;100.00;101754.81;10439355;27;98045;-92
2023/12/18 11:38:19;;;;;;;51.27;25.23;;;3.50;99.90;;;1.27;100.00;101736.69;10460614;27;96639;-91
2023/12/18 11:43:36;;;;;;;55.23;24.03;;;3.50;99.90;;;1.35;100.00;101741.56;10463636;27;96682;-91
2023/12/18 11:48:41;;;;;;;43.13;20.87;;;3.50;99.90;;;1.33;100.00;101718.06;10455339;27;96838;-91
2023/12/18 11:53:44;;;;;;;42.57;22.37;;;3.60;99.90;;;1.49;100.00;101726.03;10431184;27;97898;-91
2023/12/18 11:58:48;;;;;;;47.10;22.67;;;3.60;99.90;;;1.58;100.00;101727.38;10451789;27;96597;-91
2023/12/18 12:03:53;;;;;;;40.73;20.27;;;3.70;99.90;;;1.68;100.00;101718.16;10452815;27;96804;-91
2023/12/18 12:08:56;;;;;;;37.93;18.40;;;3.80;99.90;;;1.78;100.00;101713.31;10487860;27;96551;-91
2023/12/18 12:14:01;;;;;;;34.37;17.67;;;3.90;99.90;;;1.84;100.00;101705.16;10458843;27;97961;-91
2023/12/18 12:19:05;;;;;;;44.23;21.30;;;4.00;99.90;;;1.97;100.00;101695.75;10468452;27;97686;-91
2023/12/18 12:24:10;;;;;;;38.87;19.97;;;4.10;99.90;;;2.10;100.00;101688.16;10454574;27;96505;-90
2023/12/18 12:29:14;;;;;;;46.27;22.03;;;4.20;99.90;;;2.22;100.00;101677.03;10458574;27;96638;-93
2023/12/18 12:34:18;;;;;;;46.07;23.87;;;4.30;99.90;;;2.33;100.00;101661.56;10460636;27;96589;-89
2023/12/18 12:39:23;;;;;;;48.23;22.77;;;4.40;99.90;;;2.48;100.00;101661.72;10478153;27;96914;-89
2023/12/18 12:44:27;;;;;;;49.50;22.97;;;4.50;99.90;;;2.51;100.00;101643.19;10487591;27;96560;-89
2023/12/18 12:49:31;;;;;;;41.67;21.63;;;4.70;99.90;;;2.63;100.00;101634.66;10475639;27;96629;-90
2023/12/18 12:54:34;;;;;;;42.63;21.27;;;4.70;99.90;;;2.74;100.00;101632.31;10462475;27;96891;-89
2023/12/18 12:59:54;;;;;;;42.20;21.27;;;4.80;99.90;;;2.83;100.00;101642.31;10468397;27;96934;-89
2023/12/18 13:04:58;;;;;;;44.83;22.47;;;4.90;99.90;;;2.92;100.00;101626.06;10491911;27;96810;-89
2023/12/18 13:10:03;;;;;;;43.70;20.63;;;5.00;99.90;;;2.87;100.00;101600.97;10489082;27;96591;-89
2023/12/18 13:15:07;;;;;;;47.77;22.80;;;5.10;99.90;;;3.02;100.00;101612.44;10505918;27;96633;-90
2023/12/18 13:20:10;;;;;;;43.70;20.70;;;5.10;99.90;;;3.10;100.00;101623.34;10462361;27;96644;-89
2023/12/18 13:25:25;;;;;;;43.53;19.93;;;5.20;99.90;;;3.09;100.00;101619.03;10449839;27;96587;-89
2023/12/18 13:30:29;;;;;;;43.23;19.43;;;5.20;99.90;;;3.08;100.00;101612.09;10463184;27;96348;-89
2023/12/18 13:35:32;;;;;;;38.90;18.60;;;5.20;99.90;;;3.08;100.00;101602.44;10460302;27;96562;-89
2023/12/18 13:40:37;;;;;;;35.07;18.17;;;5.20;99.90;;;3.03;100.00;101595.75;10461338;27;96433;-89
2023/12/18 13:45:40;;;;;;;40.30;21.13;;;5.20;99.90;;;3.00;100.00;101602.03;10457682;27;96402;-90
2023/12/18 13:50:44;;;;;;;47.93;24.13;;;5.10;99.90;;;2.97;100.00;101603.97;10447211;27;97749;-90
2023/12/18 13:55:47;;;;;;;40.13;21.57;;;5.10;99.90;;;2.86;100.00;101596.66;10462757;27;96426;-89
2023/12/18 14:00:50;;;;;;;45.80;21.77;;;5.00;99.90;;;2.77;100.00;101603.28;10436492;27;97915;-89
2023/12/18 14:05:55;;;;;;;49.33;24.77;;;4.90;99.90;;;2.66;100.00;101600.38;10454459;27;97945;-90
2023/12/18 14:10:59;;;;;;;50.80;24.80;;;4.70;99.90;;;2.48;100.00;101585.63;10461100;27;96517;-89
2023/12/18 14:16:05;;;;;;;50.73;24.27;;;4.60;99.90;;;2.38;100.00;101587.88;10446153;27;96523;-90
2023/12/18 14:21:08;;;;;;;53.97;25.07;;;4.50;99.90;;;2.16;100.00;101588.19;10487776;27;96498;-89
2023/12/18 14:26:11;;;;;;;48.77;24.80;;;4.30;99.90;;;2.04;100.00;101583.53;10434724;27;96902;-89
2023/12/18 14:31:14;;;;;;;49.90;23.23;;;4.20;99.90;;;1.97;100.00;101593.50;10401094;27;96543;-89
2023/12/18 14:36:18;;;;;;;50.13;25.37;;;4.00;99.90;;;1.82;100.00;101604.78;10454435;27;96502;-89
2023/12/18 14:41:22;;;;;;;59.53;29.30;;;3.90;99.90;;;1.65;100.00;101610.03;10481806;27;96456;-90
2023/12/18 14:46:25;;;;;;;50.10;25.10;;;3.80;99.90;;;1.50;100.00;101612.47;10444219;27;96516;-89
2023/12/18 14:51:29;;;;;;;55.33;24.07;;;3.60;99.90;;;1.39;100.00;101624.41;10452130;27;96472;-90
2023/12/18 14:56:32;;;;;;;55.83;29.00;;;3.50;99.90;;;1.23;100.00;101609.41;10460319;27;96691;-89
2023/12/18 15:01:42;;;;;;;60.57;30.23;;;3.40;99.90;;;1.12;100.00;101618.69;10460181;27;96479;-89
2023/12/18 15:06:46;;;;;;;87.03;40.93;;;3.30;99.90;;;1.02;100.00;101639.22;10495926;27;96517;-90
2023/12/18 15:11:49;;;;;;;73.63;33.93;;;3.10;99.90;;;0.87;100.00;101637.31;10477322;27;96572;-90
2023/12/18 15:16:53;;;;;;;80.80;35.53;;;3.00;99.90;;;0.75;100.00;101639.59;10501785;27;96457;-89
2023/12/18 15:21:58;;;;;;;66.53;34.00;;;2.90;99.90;;;0.65;100.00;101630.44;10467174;27;96460;-90
2023/12/18 15:27:01;;;;;;;93.97;38.67;;;2.70;99.90;;;0.63;100.00;101628.81;10501186;27;96534;-90
2023/12/18 15:32:05;;;;;;;70.00;31.13;;;2.70;99.90;;;0.66;100.00;101619.09;10485344;27;96636;-90
2023/12/18 15:37:10;;;;;;;70.50;34.67;;;2.70;99.90;;;0.59;100.00;101601.94;10499858;27;97648;-90
2023/12/18 15:42:14;;;;;;;62.77;32.13;;;2.70;99.90;;;0.65;100.00;101612.13;10484958;27;97811;-90
2023/12/18 15:47:18;;;;;;;53.67;27.97;;;2.70;99.90;;;0.58;100.00;101615.94;10458978;27;96875;-90
2023/12/18 15:52:22;;;;;;;68.77;29.30;;;2.70;99.90;;;0.44;100.00;101615.72;10436707;27;96758;-90
2023/12/18 15:57:26;;;;;;;58.67;27.10;;;2.60;99.90;;;0.32;100.00;101624.97;10417755;28;96514;-90
2023/12/18 16:02:29;;;;;;;61.87;31.53;;;2.50;99.90;;;0.21;100.00;101630.66;10445868;27;96456;-91
2023/12/18 16:07:33;;;;;;;71.97;34.07;;;2.40;99.90;;;0.08;100.00;101605.13;10461322;27;96799;-91
2023/12/18 16:12:36;;;;;;;83.40;40.10;;;2.30;99.90;;;0.11;100.00;101605.81;10457047;27;96631;-90
2023/12/18 16:17:39;;;;;;;100.47;41.27;;;2.20;99.90;;;0.15;100.00;101644.00;10434001;27;96540;-90
2023/12/18 16:22:43;;;;;;;75.93;35.23;;;2.20;99.90;;;0.05;100.00;101615.69;10480797;27;96524;-90
2023/12/18 16:27:47;;;;;;;74.67;36.37;;;2.20;99.90;;;-0.06;100.00;101609.19;10476553;27;96621;-89
2023/12/18 16:32:50;;;;;;;69.13;31.87;;;2.10;99.90;;;-0.08;100.00;101607.53;10444344;27;96996;-90
2023/12/18 16:37:53;;;;;;;76.07;34.40;;;2.00;99.90;;;-0.14;100.00;101623.47;10451005;27;98130;-89
2023/12/18 16:42:57;;;;;;;73.40;33.80;;;2.00;99.90;;;-0.21;100.00;101625.50;10439857;27;96548;-89
2023/12/18 16:48:00;;;;;;;71.17;31.83;;;1.90;99.90;;;-0.31;100.00;101632.00;10457342;27;96682;-90
2023/12/18 16:53:04;;;;;;;85.23;37.80;;;1.80;99.90;;;-0.49;100.00;101615.31;10426463;27;97435;-90
2023/12/18 16:58:09;;;;;;;84.63;37.33;;;1.70;99.90;;;-0.60;100.00;101614.91;10474444;27;96756;-90
2023/12/18 17:03:14;;;;;;;72.87;31.27;;;1.60;99.90;;;-0.73;100.00;101608.47;10459327;27;96534;-90
2023/12/18 17:08:18;;;;;;;81.90;35.13;;;1.40;99.90;;;-0.86;100.00;101593.31;10472324;27;96871;-90
2023/12/18 17:13:22;;;;;;;78.43;35.23;;;1.30;99.90;;;-0.95;100.00;101585.88;10501577;27;96625;-89
2023/12/18 17:18:26;;;;;;;67.27;31.07;;;1.20;99.90;;;-1.09;100.00;101583.78;10478676;27;96662;-90
2023/12/18 17:23:29;;;;;;;66.70;30.47;;;1.10;99.90;;;-1.18;100.00;101584.16;10477808;27;97250;-90
2023/12/18 17:28:32;;;;;;;79.87;34.23;;;1.00;99.90;;;-1.26;100.00;101583.59;10456294;27;96875;-90
2023/12/18 17:33:36;;;;;;;107.67;47.30;;;0.90;99.90;;;-1.31;100.00;101571.63;10463278;27;96582;-90
2023/12/18 17:38:39;;;;;;;85.90;36.80;;;0.80;99.90;;;-1.17;100.00;101574.56;10445278;27;98442;-91
2023/12/18 17:43:43;;;;;;;95.73;39.30;;;0.90;99.90;;;-1.09;100.00;101577.72;10476038;27;96918;-90
2023/12/18 17:48:46;;;;;;;76.57;37.27;;;1.00;99.90;;;-1.14;100.00;101582.25;10445831;27;97324;-91
2023/12/18 17:53:49;;;;;;;79.80;32.83;;;1.00;99.90;;;-1.22;100.00;101589.53;10465730;27;97328;-91
2023/12/18 17:58:53;;;;;;;95.63;33.53;;;0.90;99.90;;;-1.33;100.00;101602.13;10464275;27;96643;-92
2023/12/18 18:03:56;;;;;;;80.17;32.27;;;0.80;99.90;;;-1.46;100.00;101593.91;10463201;27;98995;-92
2023/12/18 18:09:00;;;;;;;94.97;37.87;;;0.80;99.90;;;-1.45;100.00;101609.50;10458197;27;98669;-90
2023/12/18 18:14:03;;;;;;;92.47;39.73;;;0.70;99.90;;;-1.52;100.00;101602.81;10452525;27;96927;-90
2023/12/18 18:19:08;;;;;;;128.80;51.93;;;0.70;99.90;;;-1.61;100.00;101590.13;10461387;27;97306;-90
2023/12/18 18:24:12;;;;;;;101.63;38.47;;;0.60;99.90;;;-1.62;100.00;101593.63;10437104;27;96860;-92
2023/12/18 18:29:19;;;;;;;116.77;45.63;;;0.50;99.90;;;-1.65;100.00;101581.56;10450148;27;99382;-91
2023/12/18 18:34:22;;;;;;;89.37;37.53;;;0.50;99.90;;;-1.69;100.00;101581.72;10464247;27;96694;-92
2023/12/18 18:39:26;;;;;;;86.90;35.87;;;0.40;99.90;;;-1.73;100.00;101574.94;10456685;27;96617;-92
2023/12/18 18:44:29;;;;;;;95.57;38.77;;;0.40;99.90;;;-1.73;100.00;101578.38;10471322;27;97357;-92
2023/12/18 18:49:32;;;;;;;88.63;35.47;;;0.30;99.90;;;-1.84;100.00;101564.91;10469907;27;97068;-93
2023/12/18 18:54:37;;;;;;;98.47;38.03;;;0.30;99.90;;;-1.80;100.00;101576.03;10478932;27;96650;-92
2023/12/18 18:59:41;;;;;;;109.37;46.30;;;0.30;99.90;;;-1.92;100.00;101549.56;10461423;27;96468;-92
2023/12/18 19:04:44;;;;;;;107.10;43.93;;;0.30;99.90;;;-1.88;100.00;101558.09;10452686;27;97280;-92
2023/12/18 19:09:48;;;;;;;112.00;49.87;;;0.20;99.90;;;-1.90;100.00;101558.16;10469321;27;96568;-91
2023/12/18 19:14:51;;;;;;;103.10;45.07;;;0.20;99.90;;;-1.83;100.00;101556.16;10455032;27;96522;-92
2023/12/18 19:19:55;;;;;;;129.57;51.77;;;0.20;99.90;;;-1.80;100.00;101556.06;10463628;27;96520;-91
2023/12/18 19:24:59;;;;;;;128.77;54.50;;;0.20;99.90;;;-1.84;100.00;101559.69;10457025;27;98771;-91
2023/12/18 19:30:03;;;;;;;106.93;46.30;;;0.20;99.90;;;-1.86;100.00;101563.22;10439162;27;96969;-92
2023/12/18 19:35:08;;;;;;;129.23;51.20;;;0.20;99.90;;;-1.92;100.00;101566.91;10435152;27;100100;-92
2023/12/18 19:40:13;;;;;;;124.00;51.53;;;0.20;99.90;;;-1.92;100.00;101573.00;10451950;27;96463;-91
2023/12/18 19:45:17;;;;;;;130.03;53.00;;;0.10;99.90;;;-1.93;100.00;101567.81;10430067;27;96607;-92
2023/12/18 19:50:20;;;;;;;116.13;47.63;;;0.10;99.90;;;-2.00;100.00;101575.00;10429234;27;97183;-92
2023/12/18 19:55:24;;;;;;;121.90;51.73;;;0.00;99.90;;;-2.14;100.00;101559.03;10457207;27;98925;-92
2023/12/18 20:00:27;;;;;;;129.53;55.27;;;0.00;99.90;;;-2.06;100.00;101549.16;10440816;27;96654;-92
2023/12/18 20:05:31;;;;;;;145.10;59.87;;;-0.10;99.90;;;-2.19;100.00;101527.06;10452612;27;96839;-92
2023/12/18 20:10:34;;;;;;;125.20;53.20;;;-0.10;99.90;;;-2.13;100.00;101531.22;10423628;27;96822;-93
2023/12/18 20:15:38;;;;;;;96.03;43.57;;;-0.10;99.90;;;-2.10;100.00;101529.34;10436269;27;96689;-92
2023/12/18 20:20:42;;;;;;;90.97;37.33;;;-0.10;99.90;;;-2.21;100.00;101524.53;10427953;27;96630;-91
2023/12/18 20:25:45;;;;;;;91.37;39.47;;;-0.20;99.90;;;-2.09;100.00;101538.03;10422047;27;96755;-89
2023/12/18 20:30:49;;;;;;;89.23;40.03;;;-0.10;99.90;;;-2.20;100.00;101517.56;10464665;27;97021;-91